sensor_id;sensor_type;location;lat;lon;timestamp;P1;durP1;ratioP1;P2;durP2;ratioP2
13014;SDS011;6573;57.696;11.950;2023-05-10T00:02:11;3.97;;;2.33;;
13014;SDS011;6573;57.696;11.950;2023-05-10T00:04:39;3.07;;;2.23;;
13014;SDS011;6573;57.696;11.950;2023-05-10T00:07:07;4.80;;;2.17;;
13014;SDS011;6573;57.696;11.950;2023-05-10T00:09:36;6.80;;;2.37;;
13014;SDS011;6573;57.696;11.950;2023-05-10T00:12:05;5.17;;;2.50;;
13014;SDS011;6573;57.696;11.950;2023-05-10T00:14:33;2.90;;;2.27;;
13014;SDS011;6573;57.696;11.950;2023-05-10T00:17:03;5.03;;;2.50;;
13014;SDS011;6573;57.696;11.950;2023-05-10T00:19:32;3.93;;;1.93;;
13014;SDS011;6573;57.696;11.950;2023-05-10T00:22:00;3.20;;;2.43;;
13014;SDS011;6573;57.696;11.950;2023-05-10T00:24:36;5.83;;;2.67;;
13014;SDS011;6573;57.696;11.950;2023-05-10T00:27:05;5.07;;;2.67;;
13014;SDS011;6573;57.696;11.950;2023-05-10T00:29:33;6.63;;;2.50;;
13014;SDS011;6573;57.696;11.950;2023-05-10T00:32:04;6.03;;;2.40;;
13014;SDS011;6573;57.696;11.950;2023-05-10T00:34:33;7.07;;;2.60;;
13014;SDS011;6573;57.696;11.950;2023-05-10T00:37:01;7.33;;;2.30;;
13014;SDS011;6573;57.696;11.950;2023-05-10T00:39:32;6.03;;;2.77;;
13014;SDS011;6573;57.696;11.950;2023-05-10T00:42:00;3.60;;;2.30;;
13014;SDS011;6573;57.696;11.950;2023-05-10T00:44:31;4.37;;;2.53;;
13014;SDS011;6573;57.696;11.950;2023-05-10T00:47:04;3.13;;;2.40;;
13014;SDS011;6573;57.696;11.950;2023-05-10T00:49:33;3.20;;;2.43;;
13014;SDS011;6573;57.696;11.950;2023-05-10T00:52:02;6.87;;;2.60;;
13014;SDS011;6573;57.696;11.950;2023-05-10T00:54:31;3.93;;;2.50;;
13014;SDS011;6573;57.696;11.950;2023-05-10T00:57:00;4.93;;;2.43;;
13014;SDS011;6573;57.696;11.950;2023-05-10T00:59:28;2.73;;;2.07;;
13014;SDS011;6573;57.696;11.950;2023-05-10T01:02:00;5.13;;;2.03;;
13014;SDS011;6573;57.696;11.950;2023-05-10T01:04:31;4.23;;;2.50;;
13014;SDS011;6573;57.696;11.950;2023-05-10T01:06:59;3.10;;;2.17;;
13014;SDS011;6573;57.696;11.950;2023-05-10T01:09:27;6.13;;;2.90;;
13014;SDS011;6573;57.696;11.950;2023-05-10T01:12:04;3.63;;;2.90;;
13014;SDS011;6573;57.696;11.950;2023-05-10T01:14:34;3.33;;;2.27;;
13014;SDS011;6573;57.696;11.950;2023-05-10T01:17:04;4.20;;;2.30;;
13014;SDS011;6573;57.696;11.950;2023-05-10T01:19:35;3.60;;;2.40;;
13014;SDS011;6573;57.696;11.950;2023-05-10T01:22:06;2.97;;;2.40;;
13014;SDS011;6573;57.696;11.950;2023-05-10T01:25:11;8.97;;;2.30;;
13014;SDS011;6573;57.696;11.950;2023-05-10T01:28:02;3.17;;;2.33;;
13014;SDS011;6573;57.696;11.950;2023-05-10T01:31:03;4.13;;;2.70;;
13014;SDS011;6573;57.696;11.950;2023-05-10T01:33:48;6.27;;;2.40;;
13014;SDS011;6573;57.696;11.950;2023-05-10T01:36:23;9.93;;;2.97;;
13014;SDS011;6573;57.696;11.950;2023-05-10T01:38:59;5.20;;;2.93;;
13014;SDS011;6573;57.696;11.950;2023-05-10T01:41:35;4.17;;;2.70;;
13014;SDS011;6573;57.696;11.950;2023-05-10T01:44:14;5.03;;;3.00;;
13014;SDS011;6573;57.696;11.950;2023-05-10T01:46:47;2.90;;;2.37;;
13014;SDS011;6573;57.696;11.950;2023-05-10T01:49:23;6.00;;;2.40;;
13014;SDS011;6573;57.696;11.950;2023-05-10T01:51:58;3.60;;;2.30;;
13014;SDS011;6573;57.696;11.950;2023-05-10T01:54:37;3.40;;;2.30;;
13014;SDS011;6573;57.696;11.950;2023-05-10T01:57:11;6.37;;;2.50;;
13014;SDS011;6573;57.696;11.950;2023-05-10T01:59:43;8.47;;;2.50;;
13014;SDS011;6573;57.696;11.950;2023-05-10T02:02:18;3.00;;;2.23;;
13014;SDS011;6573;57.696;11.950;2023-05-10T02:04:50;4.23;;;2.40;;
13014;SDS011;6573;57.696;11.950;2023-05-10T02:07:20;5.53;;;2.30;;
13014;SDS011;6573;57.696;11.950;2023-05-10T02:09:50;7.27;;;2.77;;
13014;SDS011;6573;57.696;11.950;2023-05-10T02:12:20;5.43;;;2.80;;
13014;SDS011;6573;57.696;11.950;2023-05-10T02:14:50;6.13;;;2.60;;
13014;SDS011;6573;57.696;11.950;2023-05-10T02:17:21;5.00;;;2.37;;
13014;SDS011;6573;57.696;11.950;2023-05-10T02:19:53;4.53;;;2.80;;
13014;SDS011;6573;57.696;11.950;2023-05-10T02:22:24;4.43;;;2.67;;
13014;SDS011;6573;57.696;11.950;2023-05-10T02:24:54;4.17;;;2.60;;
13014;SDS011;6573;57.696;11.950;2023-05-10T02:27:25;3.33;;;2.50;;
13014;SDS011;6573;57.696;11.950;2023-05-10T02:29:55;4.53;;;2.47;;
13014;SDS011;6573;57.696;11.950;2023-05-10T02:32:26;8.13;;;2.30;;
13014;SDS011;6573;57.696;11.950;2023-05-10T02:34:56;6.97;;;2.57;;
13014;SDS011;6573;57.696;11.950;2023-05-10T02:37:27;3.27;;;2.80;;
13014;SDS011;6573;57.696;11.950;2023-05-10T02:39:56;6.10;;;3.00;;
13014;SDS011;6573;57.696;11.950;2023-05-10T02:42:26;4.43;;;2.90;;
13014;SDS011;6573;57.696;11.950;2023-05-10T02:44:57;5.13;;;2.60;;
13014;SDS011;6573;57.696;11.950;2023-05-10T02:47:29;3.13;;;2.37;;
13014;SDS011;6573;57.696;11.950;2023-05-10T02:50:02;4.07;;;2.63;;
13014;SDS011;6573;57.696;11.950;2023-05-10T02:52:36;6.43;;;2.60;;
13014;SDS011;6573;57.696;11.950;2023-05-10T02:55:11;4.33;;;2.70;;
13014;SDS011;6573;57.696;11.950;2023-05-10T03:00:27;5.40;;;2.87;;
13014;SDS011;6573;57.696;11.950;2023-05-10T03:02:56;4.03;;;2.77;;
13014;SDS011;6573;57.696;11.950;2023-05-10T03:05:26;4.33;;;2.30;;
13014;SDS011;6573;57.696;11.950;2023-05-10T03:07:55;4.93;;;2.80;;
13014;SDS011;6573;57.696;11.950;2023-05-10T03:10:26;3.30;;;2.70;;
13014;SDS011;6573;57.696;11.950;2023-05-10T03:13:01;3.80;;;2.70;;
13014;SDS011;6573;57.696;11.950;2023-05-10T03:15:42;7.90;;;2.87;;
13014;SDS011;6573;57.696;11.950;2023-05-10T03:18:15;7.63;;;2.80;;
13014;SDS011;6573;57.696;11.950;2023-05-10T03:20:50;3.23;;;2.40;;
13014;SDS011;6573;57.696;11.950;2023-05-10T03:23:26;3.30;;;2.33;;
13014;SDS011;6573;57.696;11.950;2023-05-10T03:25:57;3.30;;;2.03;;
13014;SDS011;6573;57.696;11.950;2023-05-10T03:28:27;7.63;;;2.47;;
13014;SDS011;6573;57.696;11.950;2023-05-10T03:30:59;6.90;;;2.30;;
13014;SDS011;6573;57.696;11.950;2023-05-10T03:33:28;9.57;;;2.30;;
13014;SDS011;6573;57.696;11.950;2023-05-10T03:35:58;6.23;;;2.53;;
13014;SDS011;6573;57.696;11.950;2023-05-10T03:38:28;4.07;;;2.43;;
13014;SDS011;6573;57.696;11.950;2023-05-10T03:41:00;4.03;;;2.40;;
13014;SDS011;6573;57.696;11.950;2023-05-10T03:43:28;3.17;;;2.27;;
13014;SDS011;6573;57.696;11.950;2023-05-10T03:45:56;7.93;;;2.30;;
13014;SDS011;6573;57.696;11.950;2023-05-10T03:48:24;5.87;;;2.57;;
13014;SDS011;6573;57.696;11.950;2023-05-10T03:50:53;8.23;;;2.60;;
13014;SDS011;6573;57.696;11.950;2023-05-10T03:53:22;3.57;;;2.43;;
13014;SDS011;6573;57.696;11.950;2023-05-10T03:55:54;4.30;;;2.83;;
13014;SDS011;6573;57.696;11.950;2023-05-10T03:58:22;4.03;;;2.53;;
13014;SDS011;6573;57.696;11.950;2023-05-10T04:00:50;3.87;;;2.73;;
13014;SDS011;6573;57.696;11.950;2023-05-10T04:03:19;5.50;;;2.63;;
13014;SDS011;6573;57.696;11.950;2023-05-10T04:05:48;7.83;;;3.00;;
13014;SDS011;6573;57.696;11.950;2023-05-10T04:08:16;5.13;;;2.53;;
13014;SDS011;6573;57.696;11.950;2023-05-10T04:10:49;5.40;;;2.80;;
13014;SDS011;6573;57.696;11.950;2023-05-10T04:13:17;6.93;;;2.87;;
13014;SDS011;6573;57.696;11.950;2023-05-10T04:15:46;4.90;;;2.70;;
13014;SDS011;6573;57.696;11.950;2023-05-10T04:18:15;4.23;;;2.30;;
13014;SDS011;6573;57.696;11.950;2023-05-10T04:20:43;5.87;;;2.30;;
13014;SDS011;6573;57.696;11.950;2023-05-10T04:23:12;7.17;;;2.53;;
13014;SDS011;6573;57.696;11.950;2023-05-10T04:25:41;5.73;;;2.60;;
13014;SDS011;6573;57.696;11.950;2023-05-10T04:28:11;5.33;;;2.40;;
13014;SDS011;6573;57.696;11.950;2023-05-10T04:30:39;5.13;;;2.70;;
13014;SDS011;6573;57.696;11.950;2023-05-10T04:33:08;6.07;;;2.90;;
13014;SDS011;6573;57.696;11.950;2023-05-10T04:35:36;3.73;;;2.67;;
13014;SDS011;6573;57.696;11.950;2023-05-10T04:38:06;7.63;;;2.80;;
13014;SDS011;6573;57.696;11.950;2023-05-10T04:40:34;5.50;;;2.60;;
13014;SDS011;6573;57.696;11.950;2023-05-10T04:43:03;5.80;;;2.70;;
13014;SDS011;6573;57.696;11.950;2023-05-10T04:45:32;3.40;;;2.60;;
13014;SDS011;6573;57.696;11.950;2023-05-10T04:48:01;3.80;;;2.53;;
13014;SDS011;6573;57.696;11.950;2023-05-10T04:50:30;3.83;;;2.43;;
13014;SDS011;6573;57.696;11.950;2023-05-10T04:52:58;6.27;;;2.40;;
13014;SDS011;6573;57.696;11.950;2023-05-10T04:55:28;5.57;;;2.33;;
13014;SDS011;6573;57.696;11.950;2023-05-10T04:57:57;4.87;;;3.30;;
13014;SDS011;6573;57.696;11.950;2023-05-10T05:00:25;5.43;;;2.80;;
13014;SDS011;6573;57.696;11.950;2023-05-10T05:02:56;6.50;;;3.10;;
13014;SDS011;6573;57.696;11.950;2023-05-10T05:05:25;5.27;;;3.03;;
13014;SDS011;6573;57.696;11.950;2023-05-10T05:07:53;3.67;;;2.63;;
13014;SDS011;6573;57.696;11.950;2023-05-10T05:10:22;4.60;;;2.30;;
13014;SDS011;6573;57.696;11.950;2023-05-10T05:12:50;4.63;;;2.83;;
13014;SDS011;6573;57.696;11.950;2023-05-10T05:15:21;5.77;;;2.83;;
13014;SDS011;6573;57.696;11.950;2023-05-10T05:17:50;4.30;;;2.73;;
13014;SDS011;6573;57.696;11.950;2023-05-10T05:20:20;5.50;;;2.80;;
13014;SDS011;6573;57.696;11.950;2023-05-10T05:22:48;3.37;;;2.53;;
13014;SDS011;6573;57.696;11.950;2023-05-10T05:25:17;10.63;;;2.60;;
13014;SDS011;6573;57.696;11.950;2023-05-10T05:27:45;9.23;;;2.70;;
13014;SDS011;6573;57.696;11.950;2023-05-10T05:30:13;4.60;;;2.60;;
13014;SDS011;6573;57.696;11.950;2023-05-10T05:32:42;7.30;;;2.77;;
13014;SDS011;6573;57.696;11.950;2023-05-10T05:35:11;4.90;;;3.00;;
13014;SDS011;6573;57.696;11.950;2023-05-10T05:37:41;6.87;;;2.57;;
13014;SDS011;6573;57.696;11.950;2023-05-10T05:40:12;5.00;;;2.80;;
13014;SDS011;6573;57.696;11.950;2023-05-10T05:42:41;8.20;;;2.80;;
13014;SDS011;6573;57.696;11.950;2023-05-10T05:45:12;11.20;;;2.97;;
13014;SDS011;6573;57.696;11.950;2023-05-10T05:47:41;8.50;;;2.80;;
13014;SDS011;6573;57.696;11.950;2023-05-10T05:50:10;5.20;;;2.70;;
13014;SDS011;6573;57.696;11.950;2023-05-10T05:52:40;4.13;;;2.30;;
13014;SDS011;6573;57.696;11.950;2023-05-10T05:55:09;7.30;;;2.93;;
13014;SDS011;6573;57.696;11.950;2023-05-10T05:57:37;8.80;;;2.77;;
13014;SDS011;6573;57.696;11.950;2023-05-10T06:00:06;11.53;;;2.93;;
13014;SDS011;6573;57.696;11.950;2023-05-10T06:02:35;6.13;;;2.73;;
13014;SDS011;6573;57.696;11.950;2023-05-10T06:05:04;3.70;;;2.53;;
13014;SDS011;6573;57.696;11.950;2023-05-10T06:07:33;5.87;;;2.83;;
13014;SDS011;6573;57.696;11.950;2023-05-10T06:10:03;10.37;;;2.83;;
13014;SDS011;6573;57.696;11.950;2023-05-10T06:12:33;5.93;;;2.73;;
13014;SDS011;6573;57.696;11.950;2023-05-10T06:15:04;5.73;;;2.50;;
13014;SDS011;6573;57.696;11.950;2023-05-10T06:17:36;6.10;;;2.57;;
13014;SDS011;6573;57.696;11.950;2023-05-10T06:20:05;4.67;;;2.77;;
13014;SDS011;6573;57.696;11.950;2023-05-10T06:22:35;3.73;;;2.30;;
13014;SDS011;6573;57.696;11.950;2023-05-10T06:25:06;7.03;;;2.90;;
13014;SDS011;6573;57.696;11.950;2023-05-10T06:27:34;8.70;;;3.00;;
13014;SDS011;6573;57.696;11.950;2023-05-10T06:30:05;8.00;;;3.70;;
13014;SDS011;6573;57.696;11.950;2023-05-10T06:32:39;16.33;;;3.70;;
13014;SDS011;6573;57.696;11.950;2023-05-10T06:35:07;4.57;;;2.53;;
13014;SDS011;6573;57.696;11.950;2023-05-10T06:37:36;7.13;;;2.77;;
13014;SDS011;6573;57.696;11.950;2023-05-10T06:40:07;4.43;;;2.80;;
13014;SDS011;6573;57.696;11.950;2023-05-10T06:42:39;4.67;;;2.60;;
13014;SDS011;6573;57.696;11.950;2023-05-10T06:45:08;4.47;;;2.67;;
13014;SDS011;6573;57.696;11.950;2023-05-10T06:47:37;7.07;;;2.77;;
13014;SDS011;6573;57.696;11.950;2023-05-10T06:50:06;7.07;;;2.70;;
13014;SDS011;6573;57.696;11.950;2023-05-10T06:52:35;4.80;;;2.87;;
13014;SDS011;6573;57.696;11.950;2023-05-10T06:55:05;9.53;;;3.03;;
13014;SDS011;6573;57.696;11.950;2023-05-10T06:57:36;6.43;;;2.67;;
13014;SDS011;6573;57.696;11.950;2023-05-10T07:00:05;8.37;;;2.90;;
13014;SDS011;6573;57.696;11.950;2023-05-10T07:02:36;27.17;;;4.87;;
13014;SDS011;6573;57.696;11.950;2023-05-10T07:05:05;7.37;;;2.77;;
13014;SDS011;6573;57.696;11.950;2023-05-10T07:07:35;5.03;;;2.90;;
13014;SDS011;6573;57.696;11.950;2023-05-10T07:10:04;8.93;;;2.63;;
13014;SDS011;6573;57.696;11.950;2023-05-10T07:12:35;3.57;;;2.50;;
13014;SDS011;6573;57.696;11.950;2023-05-10T07:15:08;8.67;;;2.90;;
13014;SDS011;6573;57.696;11.950;2023-05-10T07:17:37;5.43;;;2.80;;
13014;SDS011;6573;57.696;11.950;2023-05-10T07:20:11;6.37;;;2.87;;
13014;SDS011;6573;57.696;11.950;2023-05-10T07:22:40;4.10;;;2.90;;
13014;SDS011;6573;57.696;11.950;2023-05-10T07:25:09;4.33;;;2.50;;
13014;SDS011;6573;57.696;11.950;2023-05-10T07:27:39;6.23;;;2.63;;
13014;SDS011;6573;57.696;11.950;2023-05-10T07:30:08;6.07;;;2.90;;
13014;SDS011;6573;57.696;11.950;2023-05-10T07:32:40;6.30;;;2.60;;
13014;SDS011;6573;57.696;11.950;2023-05-10T07:35:09;5.07;;;2.80;;
13014;SDS011;6573;57.696;11.950;2023-05-10T07:37:40;6.40;;;2.80;;
13014;SDS011;6573;57.696;11.950;2023-05-10T07:40:09;6.50;;;3.07;;
13014;SDS011;6573;57.696;11.950;2023-05-10T07:42:44;6.57;;;2.70;;
13014;SDS011;6573;57.696;11.950;2023-05-10T07:45:12;7.00;;;2.77;;
13014;SDS011;6573;57.696;11.950;2023-05-10T07:47:41;19.27;;;4.40;;
13014;SDS011;6573;57.696;11.950;2023-05-10T07:50:09;3.33;;;2.07;;
13014;SDS011;6573;57.696;11.950;2023-05-10T07:52:38;4.33;;;2.90;;
13014;SDS011;6573;57.696;11.950;2023-05-10T07:55:08;10.53;;;3.27;;
13014;SDS011;6573;57.696;11.950;2023-05-10T07:57:37;6.83;;;3.00;;
13014;SDS011;6573;57.696;11.950;2023-05-10T08:00:08;6.00;;;3.40;;
13014;SDS011;6573;57.696;11.950;2023-05-10T08:02:41;8.83;;;3.13;;
13014;SDS011;6573;57.696;11.950;2023-05-10T08:05:09;3.80;;;2.80;;
13014;SDS011;6573;57.696;11.950;2023-05-10T08:07:42;7.07;;;2.90;;
13014;SDS011;6573;57.696;11.950;2023-05-10T08:10:10;5.60;;;3.13;;
13014;SDS011;6573;57.696;11.950;2023-05-10T08:12:38;9.53;;;3.00;;
13014;SDS011;6573;57.696;11.950;2023-05-10T08:15:09;20.63;;;3.27;;
13014;SDS011;6573;57.696;11.950;2023-05-10T08:17:38;4.80;;;2.67;;
13014;SDS011;6573;57.696;11.950;2023-05-10T08:20:06;6.50;;;3.00;;
13014;SDS011;6573;57.696;11.950;2023-05-10T08:22:35;6.77;;;3.63;;
13014;SDS011;6573;57.696;11.950;2023-05-10T08:25:04;6.30;;;3.33;;
13014;SDS011;6573;57.696;11.950;2023-05-10T08:27:33;9.30;;;3.00;;
13014;SDS011;6573;57.696;11.950;2023-05-10T08:30:01;6.77;;;2.90;;
13014;SDS011;6573;57.696;11.950;2023-05-10T08:32:35;13.13;;;2.90;;
13014;SDS011;6573;57.696;11.950;2023-05-10T08:35:05;12.83;;;3.20;;
13014;SDS011;6573;57.696;11.950;2023-05-10T08:37:36;5.67;;;3.00;;
13014;SDS011;6573;57.696;11.950;2023-05-10T08:40:04;5.50;;;2.97;;
13014;SDS011;6573;57.696;11.950;2023-05-10T08:42:34;5.93;;;3.40;;
13014;SDS011;6573;57.696;11.950;2023-05-10T08:45:07;5.90;;;2.90;;
13014;SDS011;6573;57.696;11.950;2023-05-10T08:47:38;6.57;;;2.70;;
13014;SDS011;6573;57.696;11.950;2023-05-10T08:50:07;4.40;;;2.73;;
13014;SDS011;6573;57.696;11.950;2023-05-10T08:52:37;4.50;;;2.90;;
13014;SDS011;6573;57.696;11.950;2023-05-10T08:55:08;9.90;;;3.03;;
13014;SDS011;6573;57.696;11.950;2023-05-10T08:57:36;6.90;;;2.87;;
13014;SDS011;6573;57.696;11.950;2023-05-10T09:00:08;8.13;;;2.50;;
13014;SDS011;6573;57.696;11.950;2023-05-10T09:02:39;3.17;;;2.43;;
13014;SDS011;6573;57.696;11.950;2023-05-10T09:05:08;4.90;;;2.63;;
13014;SDS011;6573;57.696;11.950;2023-05-10T09:07:37;12.93;;;3.20;;
13014;SDS011;6573;57.696;11.950;2023-05-10T09:10:06;11.33;;;3.00;;
13014;SDS011;6573;57.696;11.950;2023-05-10T09:12:36;3.97;;;2.53;;
13014;SDS011;6573;57.696;11.950;2023-05-10T09:15:05;3.93;;;2.80;;
13014;SDS011;6573;57.696;11.950;2023-05-10T09:17:35;5.13;;;2.80;;
13014;SDS011;6573;57.696;11.950;2023-05-10T09:20:07;5.43;;;2.87;;
13014;SDS011;6573;57.696;11.950;2023-05-10T09:22:35;4.17;;;2.90;;
13014;SDS011;6573;57.696;11.950;2023-05-10T09:25:05;11.27;;;2.90;;
13014;SDS011;6573;57.696;11.950;2023-05-10T09:27:38;7.77;;;2.70;;
13014;SDS011;6573;57.696;11.950;2023-05-10T09:30:07;5.13;;;2.70;;
13014;SDS011;6573;57.696;11.950;2023-05-10T09:32:37;6.57;;;3.00;;
13014;SDS011;6573;57.696;11.950;2023-05-10T09:35:09;9.83;;;2.90;;
13014;SDS011;6573;57.696;11.950;2023-05-10T09:37:38;6.57;;;2.97;;
13014;SDS011;6573;57.696;11.950;2023-05-10T09:40:11;4.57;;;2.93;;
13014;SDS011;6573;57.696;11.950;2023-05-10T09:42:41;7.10;;;3.10;;
13014;SDS011;6573;57.696;11.950;2023-05-10T09:45:10;7.93;;;2.97;;
13014;SDS011;6573;57.696;11.950;2023-05-10T09:47:38;5.43;;;2.97;;
13014;SDS011;6573;57.696;11.950;2023-05-10T09:50:09;6.87;;;2.70;;
13014;SDS011;6573;57.696;11.950;2023-05-10T09:52:45;4.63;;;2.93;;
13014;SDS011;6573;57.696;11.950;2023-05-10T09:55:15;7.17;;;2.97;;
13014;SDS011;6573;57.696;11.950;2023-05-10T09:57:44;8.33;;;3.00;;
13014;SDS011;6573;57.696;11.950;2023-05-10T10:00:17;5.50;;;3.00;;
13014;SDS011;6573;57.696;11.950;2023-05-10T10:02:47;7.00;;;3.23;;
13014;SDS011;6573;57.696;11.950;2023-05-10T10:05:29;9.97;;;3.13;;
13014;SDS011;6573;57.696;11.950;2023-05-10T10:07:58;3.40;;;2.83;;
13014;SDS011;6573;57.696;11.950;2023-05-10T10:10:27;10.03;;;2.83;;
13014;SDS011;6573;57.696;11.950;2023-05-10T10:12:56;5.33;;;3.00;;
13014;SDS011;6573;57.696;11.950;2023-05-10T10:15:25;2.57;;;2.30;;
13014;SDS011;6573;57.696;11.950;2023-05-10T10:17:54;10.40;;;3.50;;
13014;SDS011;6573;57.696;11.950;2023-05-10T10:20:22;6.60;;;3.40;;
13014;SDS011;6573;57.696;11.950;2023-05-10T10:22:53;6.33;;;2.70;;
13014;SDS011;6573;57.696;11.950;2023-05-10T10:25:22;6.47;;;2.87;;
13014;SDS011;6573;57.696;11.950;2023-05-10T10:27:56;6.47;;;2.30;;
13014;SDS011;6573;57.696;11.950;2023-05-10T10:30:35;5.17;;;3.20;;
13014;SDS011;6573;57.696;11.950;2023-05-10T10:36:19;6.60;;;3.17;;
13014;SDS011;6573;57.696;11.950;2023-05-10T10:38:58;8.10;;;3.07;;
13014;SDS011;6573;57.696;11.950;2023-05-10T10:41:32;5.53;;;2.80;;
13014;SDS011;6573;57.696;11.950;2023-05-10T10:47:02;6.60;;;3.37;;
13014;SDS011;6573;57.696;11.950;2023-05-10T10:49:42;5.77;;;3.37;;
13014;SDS011;6573;57.696;11.950;2023-05-10T10:52:20;6.83;;;3.37;;
13014;SDS011;6573;57.696;11.950;2023-05-10T10:54:52;4.47;;;2.80;;
13014;SDS011;6573;57.696;11.950;2023-05-10T10:57:32;7.00;;;3.00;;
13014;SDS011;6573;57.696;11.950;2023-05-10T11:03:03;4.53;;;2.83;;
13014;SDS011;6573;57.696;11.950;2023-05-10T11:05:40;4.90;;;2.40;;
13014;SDS011;6573;57.696;11.950;2023-05-10T11:08:13;5.03;;;2.70;;
13014;SDS011;6573;57.696;11.950;2023-05-10T11:13:37;6.53;;;2.80;;
13014;SDS011;6573;57.696;11.950;2023-05-10T11:16:13;4.00;;;2.40;;
13014;SDS011;6573;57.696;11.950;2023-05-10T11:19:01;6.10;;;2.90;;
13014;SDS011;6573;57.696;11.950;2023-05-10T11:21:32;4.47;;;2.30;;
13014;SDS011;6573;57.696;11.950;2023-05-10T11:24:01;5.87;;;2.60;;
13014;SDS011;6573;57.696;11.950;2023-05-10T11:26:34;4.30;;;2.30;;
13014;SDS011;6573;57.696;11.950;2023-05-10T11:29:03;4.40;;;2.50;;
13014;SDS011;6573;57.696;11.950;2023-05-10T11:31:32;5.33;;;2.63;;
13014;SDS011;6573;57.696;11.950;2023-05-10T11:34:01;5.10;;;2.87;;
13014;SDS011;6573;57.696;11.950;2023-05-10T11:36:32;4.23;;;2.50;;
13014;SDS011;6573;57.696;11.950;2023-05-10T11:39:01;3.53;;;2.30;;
13014;SDS011;6573;57.696;11.950;2023-05-10T11:41:35;2.20;;;2.00;;
13014;SDS011;6573;57.696;11.950;2023-05-10T11:44:03;3.30;;;2.40;;
13014;SDS011;6573;57.696;11.950;2023-05-10T11:46:32;6.90;;;2.70;;
13014;SDS011;6573;57.696;11.950;2023-05-10T11:49:00;3.47;;;2.50;;
13014;SDS011;6573;57.696;11.950;2023-05-10T11:51:32;5.07;;;2.37;;
13014;SDS011;6573;57.696;11.950;2023-05-10T11:54:06;5.57;;;2.40;;
13014;SDS011;6573;57.696;11.950;2023-05-10T11:56:37;6.17;;;2.40;;
13014;SDS011;6573;57.696;11.950;2023-05-10T11:59:06;5.70;;;2.60;;
13014;SDS011;6573;57.696;11.950;2023-05-10T12:01:34;6.33;;;2.87;;
13014;SDS011;6573;57.696;11.950;2023-05-10T12:04:03;4.57;;;2.50;;
13014;SDS011;6573;57.696;11.950;2023-05-10T12:06:40;6.60;;;2.87;;
13014;SDS011;6573;57.696;11.950;2023-05-10T12:09:09;4.93;;;2.50;;
13014;SDS011;6573;57.696;11.950;2023-05-10T12:11:39;8.77;;;2.53;;
13014;SDS011;6573;57.696;11.950;2023-05-10T12:14:09;3.37;;;2.40;;
13014;SDS011;6573;57.696;11.950;2023-05-10T12:16:38;4.30;;;2.57;;
13014;SDS011;6573;57.696;11.950;2023-05-10T12:19:07;4.37;;;2.20;;
13014;SDS011;6573;57.696;11.950;2023-05-10T12:21:35;5.50;;;2.13;;
13014;SDS011;6573;57.696;11.950;2023-05-10T12:24:05;4.83;;;2.30;;
13014;SDS011;6573;57.696;11.950;2023-05-10T12:26:35;4.57;;;2.27;;
13014;SDS011;6573;57.696;11.950;2023-05-10T12:29:15;2.43;;;1.90;;
13014;SDS011;6573;57.696;11.950;2023-05-10T12:31:51;5.20;;;2.00;;
13014;SDS011;6573;57.696;11.950;2023-05-10T12:34:30;5.17;;;2.00;;
13014;SDS011;6573;57.696;11.950;2023-05-10T12:37:04;3.30;;;2.00;;
13014;SDS011;6573;57.696;11.950;2023-05-10T12:39:39;4.20;;;2.00;;
13014;SDS011;6573;57.696;11.950;2023-05-10T12:42:08;4.23;;;2.30;;
13014;SDS011;6573;57.696;11.950;2023-05-10T12:44:39;4.97;;;2.20;;
13014;SDS011;6573;57.696;11.950;2023-05-10T12:47:07;5.33;;;2.70;;
13014;SDS011;6573;57.696;11.950;2023-05-10T12:49:37;3.73;;;2.03;;
13014;SDS011;6573;57.696;11.950;2023-05-10T12:52:05;3.70;;;2.33;;
13014;SDS011;6573;57.696;11.950;2023-05-10T12:54:36;3.80;;;2.10;;
13014;SDS011;6573;57.696;11.950;2023-05-10T12:57:04;4.63;;;2.30;;
13014;SDS011;6573;57.696;11.950;2023-05-10T12:59:33;5.53;;;2.07;;
13014;SDS011;6573;57.696;11.950;2023-05-10T13:02:05;9.87;;;2.70;;
13014;SDS011;6573;57.696;11.950;2023-05-10T13:04:34;5.60;;;2.40;;
13014;SDS011;6573;57.696;11.950;2023-05-10T13:07:03;3.93;;;2.63;;
13014;SDS011;6573;57.696;11.950;2023-05-10T13:09:32;3.53;;;2.40;;
13014;SDS011;6573;57.696;11.950;2023-05-10T13:12:01;2.90;;;2.43;;
13014;SDS011;6573;57.696;11.950;2023-05-10T13:14:35;4.63;;;2.37;;
13014;SDS011;6573;57.696;11.950;2023-05-10T13:17:05;2.90;;;2.27;;
13014;SDS011;6573;57.696;11.950;2023-05-10T13:19:34;28.40;;;3.70;;
13014;SDS011;6573;57.696;11.950;2023-05-10T13:22:02;4.00;;;2.50;;
13014;SDS011;6573;57.696;11.950;2023-05-10T13:24:31;4.00;;;2.27;;
13014;SDS011;6573;57.696;11.950;2023-05-10T13:27:00;3.23;;;2.07;;
13014;SDS011;6573;57.696;11.950;2023-05-10T13:29:31;5.77;;;2.47;;
13014;SDS011;6573;57.696;11.950;2023-05-10T13:31:59;2.60;;;1.93;;
13014;SDS011;6573;57.696;11.950;2023-05-10T13:34:30;4.50;;;2.37;;
13014;SDS011;6573;57.696;11.950;2023-05-10T13:36:58;4.37;;;2.20;;
13014;SDS011;6573;57.696;11.950;2023-05-10T13:39:29;5.03;;;2.27;;
13014;SDS011;6573;57.696;11.950;2023-05-10T13:42:00;9.23;;;2.30;;
13014;SDS011;6573;57.696;11.950;2023-05-10T13:44:32;6.67;;;2.40;;
13014;SDS011;6573;57.696;11.950;2023-05-10T13:47:00;4.53;;;2.43;;
13014;SDS011;6573;57.696;11.950;2023-05-10T13:49:30;4.00;;;2.50;;
13014;SDS011;6573;57.696;11.950;2023-05-10T13:52:00;2.30;;;2.00;;
13014;SDS011;6573;57.696;11.950;2023-05-10T13:54:35;6.97;;;2.60;;
13014;SDS011;6573;57.696;11.950;2023-05-10T13:57:03;4.60;;;2.70;;
13014;SDS011;6573;57.696;11.950;2023-05-10T13:59:33;2.90;;;2.37;;
13014;SDS011;6573;57.696;11.950;2023-05-10T14:02:01;4.10;;;1.90;;
13014;SDS011;6573;57.696;11.950;2023-05-10T14:04:32;4.63;;;2.33;;
13014;SDS011;6573;57.696;11.950;2023-05-10T14:07:03;7.47;;;2.10;;
13014;SDS011;6573;57.696;11.950;2023-05-10T14:09:31;5.27;;;2.03;;
13014;SDS011;6573;57.696;11.950;2023-05-10T14:12:03;9.07;;;2.20;;
13014;SDS011;6573;57.696;11.950;2023-05-10T14:14:32;2.63;;;2.00;;
13014;SDS011;6573;57.696;11.950;2023-05-10T14:17:05;5.63;;;2.37;;
13014;SDS011;6573;57.696;11.950;2023-05-10T14:19:38;9.50;;;2.40;;
13014;SDS011;6573;57.696;11.950;2023-05-10T14:22:08;3.03;;;2.10;;
13014;SDS011;6573;57.696;11.950;2023-05-10T14:24:37;4.23;;;2.07;;
13014;SDS011;6573;57.696;11.950;2023-05-10T14:27:06;6.63;;;2.00;;
13014;SDS011;6573;57.696;11.950;2023-05-10T14:29:36;4.83;;;2.30;;
13014;SDS011;6573;57.696;11.950;2023-05-10T14:32:05;3.63;;;2.30;;
13014;SDS011;6573;57.696;11.950;2023-05-10T14:34:37;6.93;;;2.70;;
13014;SDS011;6573;57.696;11.950;2023-05-10T14:37:09;2.93;;;2.00;;
13014;SDS011;6573;57.696;11.950;2023-05-10T14:39:38;3.60;;;1.80;;
13014;SDS011;6573;57.696;11.950;2023-05-10T14:42:06;5.10;;;2.17;;
13014;SDS011;6573;57.696;11.950;2023-05-10T14:44:35;3.67;;;2.30;;
13014;SDS011;6573;57.696;11.950;2023-05-10T14:47:04;12.10;;;2.43;;
13014;SDS011;6573;57.696;11.950;2023-05-10T14:49:33;4.33;;;2.00;;
13014;SDS011;6573;57.696;11.950;2023-05-10T14:52:06;9.67;;;2.47;;
13014;SDS011;6573;57.696;11.950;2023-05-10T14:54:34;11.17;;;4.13;;
13014;SDS011;6573;57.696;11.950;2023-05-10T14:57:09;20.40;;;5.70;;
13014;SDS011;6573;57.696;11.950;2023-05-10T14:59:37;13.10;;;4.63;;
13014;SDS011;6573;57.696;11.950;2023-05-10T15:02:07;6.17;;;2.80;;
13014;SDS011;6573;57.696;11.950;2023-05-10T15:04:37;17.07;;;6.00;;
13014;SDS011;6573;57.696;11.950;2023-05-10T15:07:07;4.23;;;3.30;;
13014;SDS011;6573;57.696;11.950;2023-05-10T15:09:35;6.43;;;3.10;;
13014;SDS011;6573;57.696;11.950;2023-05-10T15:12:04;8.00;;;3.33;;
13014;SDS011;6573;57.696;11.950;2023-05-10T15:14:32;14.90;;;7.93;;
13014;SDS011;6573;57.696;11.950;2023-05-10T15:17:02;56.07;;;26.03;;
13014;SDS011;6573;57.696;11.950;2023-05-10T15:19:30;124.30;;;63.50;;
13014;SDS011;6573;57.696;11.950;2023-05-10T15:22:00;116.63;;;53.43;;